Portada
METAR-TAF:

METAR-TAF

Aeropuertos :

Lanzarote, España

Aeropuerto de Lanzarote

latitud: 28-57N, longitud: 013-36W, altitud: 14 m

Observación

El informe se hizo hace 16 minutos, a las 18:30 UTC
Viento 15 kt del norte
Temperatura 24°C
Humedad 74%
Presión 1021 hPa
Visibilidad 10 km o más
Escasas nubes a una altura de 2500 ft

METAR: GCRR 171830Z 35015KT 9999 FEW025 24/19 Q1021

Hora: 19:46 (18:46 UTC)

Pronóstico

El informe se hizo hace 4 horas y 46 minutos, a las 14:00 UTC
Pronóstico válido del 17 a las 15 UTC al 18 a las 15 UTC
Viento 9 kt del norte
Visibilidad 10 km o más
Escasas nubes a una altura de 2500 ft

TAF: GCRR 171400Z 1715/1815 35009KT 9999 FEW025 TX22/1813Z TN20/1806Z

Observaciones y pronósticos meteorológicos de más de 4000 aeropuertos (mensajes METAR y TAF).

Los puntos amarillos y rojos representan las estaciones disponibles.

Ponga el ratón en el punto deseado para ver el nombre de la estación.

Haga clic para ver las observaciones y los pronósticos meteorológicos.

Para cambiar el mapa : haga clic en los botones verdes con una cruz de color negro para hacer un zoom, en el botón verde con un guión para alejar o en las flechas verdes para mapas adyacentes.


METAR-TAF: